createdAt,value
2023-03-17T00:00:47.129Z,101467.61026257019
2023-03-17T00:06:57.234Z,101477.81408454577
2023-03-17T00:09:53.737Z,101484.59328880256
2023-03-17T00:12:50.282Z,101480.67677275451
2023-03-17T00:15:50.904Z,101485.18607415218
2023-03-17T00:18:49.440Z,101474.60028513266
2023-03-17T00:21:47.996Z,101470.35566181163
2023-03-17T00:24:44.500Z,101475.3347858927
2023-03-17T00:27:44.088Z,101471.44573367582
2023-03-17T00:30:42.647Z,101470.20807183255
2023-03-17T00:33:39.163Z,101468.08661495418
2023-03-17T00:36:35.798Z,101469.11795122932
2023-03-17T00:39:31.313Z,101462.96765776948
2023-03-17T00:42:27.869Z,101460.1275021145
2023-03-17T00:45:24.413Z,101461.5742657878
2023-03-17T00:48:22.032Z,101464.06104255738
2023-03-17T00:51:18.551Z,101456.57201561154
2023-03-17T00:54:15.116Z,101461.85593256372
2023-03-17T00:57:12.685Z,101450.95766781777
2023-03-17T01:00:17.206Z,101452.99416945822
2023-03-17T01:03:12.731Z,101441.52879405944
2023-03-17T01:06:11.292Z,101439.5757388956
2023-03-17T01:09:07.879Z,101445.70901254549
2023-03-17T01:12:04.459Z,101443.32247527366
2023-03-17T01:15:00.963Z,101449.39264785597
2023-03-17T01:17:57.544Z,101442.17920389693
2023-03-17T01:20:55.100Z,101442.51542183684
2023-03-17T01:23:50.607Z,101442.33826924581
2023-03-17T01:26:46.248Z,101439.23322654223
2023-03-17T01:29:42.796Z,101437.61948414028
2023-03-17T01:32:39.396Z,101432.48046826053
2023-03-17T01:35:37.003Z,101442.37454579712
2023-03-17T01:38:33.458Z,101436.74290050649
2023-03-17T01:41:33.018Z,101440.76654439114
2023-03-17T01:44:29.564Z,101440.70356842867
2023-03-17T01:47:28.091Z,101445.68115224534
2023-03-17T01:50:25.703Z,101439.22630073092
2023-03-17T01:53:22.198Z,101434.7415984958
2023-03-17T01:56:18.760Z,101437.14840333353
2023-03-17T01:59:18.355Z,101431.0936141527
2023-03-17T02:02:18.896Z,101431.73184094387
2023-03-17T02:05:17.470Z,101429.07585240086
2023-03-17T02:08:13.996Z,101429.99362309849
2023-03-17T02:11:10.533Z,101437.26300589136
2023-03-17T02:14:07.114Z,101439.21193524418
2023-03-17T02:17:03.696Z,101436.55524027975
2023-03-17T02:20:05.250Z,101433.76733427684
2023-03-17T02:23:01.804Z,101429.42557166783
2023-03-17T02:26:00.366Z,101432.71252723278
2023-03-17T02:28:57.898Z,101438.94571711615
2023-03-17T02:31:56.474Z,101440.54595037432
2023-03-17T02:34:53.043Z,101442.39126011144
2023-03-17T02:37:49.557Z,101439.11372126505
2023-03-17T02:40:47.070Z,101439.5334377713
2023-03-17T02:43:42.634Z,101429.62726005066
2023-03-17T02:46:39.220Z,101432.43547961643
2023-03-17T02:49:34.816Z,101443.59769987334
2023-03-17T02:55:36.909Z,101456.56943232057
2023-03-17T02:58:34.464Z,101456.27897334941
2023-03-17T03:01:31.161Z,101456.44613855427
2023-03-17T03:04:27.607Z,101455.9429504116
2023-03-17T03:07:24.159Z,101460.25808944931
2023-03-17T03:10:19.665Z,101465.90164976816
2023-03-17T03:13:15.246Z,101469.9528099186
2023-03-17T03:16:12.911Z,101482.44213933418
2023-03-17T03:19:09.390Z,101485.84860332134
2023-03-17T03:22:05.956Z,101486.08118066938
2023-03-17T03:25:01.511Z,101491.38674224594
2023-03-17T03:27:57.041Z,101492.90769915431
2023-03-17T03:33:58.153Z,101478.92124564131
2023-03-17T03:36:54.693Z,101480.33679273457
2023-03-17T03:39:51.303Z,101480.68980327137
2023-03-17T03:42:47.832Z,101488.41004185392
2023-03-17T03:45:43.350Z,101486.2868742202
2023-03-17T03:48:38.924Z,101496.37584407172
2023-03-17T03:51:35.521Z,101494.99457628748
2023-03-17T03:54:31.061Z,101499.77223755265
2023-03-17T03:57:26.635Z,101496.14170604623
2023-03-17T04:00:22.198Z,101496.51227153807
2023-03-17T04:03:17.726Z,101494.10549757918
2023-03-17T04:06:13.325Z,101495.83330406304
2023-03-17T04:09:08.891Z,101501.03591244097
2023-03-17T04:15:10.994Z,101500.0894578441
2023-03-17T04:18:06.522Z,101492.30015887225
2023-03-17T04:21:02.096Z,101488.72970913096
2023-03-17T04:23:57.653Z,101495.22663875033
2023-03-17T04:26:54.172Z,101499.42736121512
2023-03-17T04:29:50.753Z,101487.65195809955
2023-03-17T04:32:46.393Z,101496.77871850974
2023-03-17T04:35:44.918Z,101495.19018010442
2023-03-17T04:38:40.431Z,101493.62037542838
2023-03-17T04:41:37.002Z,101501.02350556279
2023-03-17T04:44:32.579Z,101509.59850749861
2023-03-17T04:47:28.104Z,101514.60136294007
2023-03-17T04:50:23.693Z,101500.2218321505
2023-03-17T04:53:19.221Z,101503.61652851978
2023-03-17T04:56:15.798Z,101503.82547844556
2023-03-17T04:59:11.343Z,101502.69101728516
2023-03-17T05:02:08.069Z,101507.80257556983
2023-03-17T05:05:05.452Z,101501.20365841447
2023-03-17T05:08:01.058Z,101502.70595452722
2023-03-17T05:10:57.627Z,101499.3667633626
2023-03-17T05:13:53.166Z,101511.72947667373
2023-03-17T05:16:48.826Z,101507.00064655158
2023-03-17T05:19:44.286Z,101512.21827312057
2023-03-17T05:25:46.392Z,101509.41176604058
2023-03-17T05:28:41.932Z,101510.98597070438
2023-03-17T05:31:38.498Z,101510.05058324664
2023-03-17T05:34:34.015Z,101516.89374815245
2023-03-17T05:37:30.642Z,101508.56270813101
2023-03-17T05:40:26.155Z,101506.48733440037
2023-03-17T05:43:22.742Z,101508.35362904999
2023-03-17T05:46:20.539Z,101515.3457887406
2023-03-17T05:49:15.815Z,101522.86110114184
2023-03-17T05:52:11.377Z,101525.7849267773
2023-03-17T05:55:07.988Z,101528.57866117102
2023-03-17T05:58:04.537Z,101525.98671731458
2023-03-17T06:01:02.096Z,101525.91064098461
2023-03-17T06:03:57.678Z,101526.26402805695
2023-03-17T06:06:53.168Z,101534.09260653038
2023-03-17T06:09:49.779Z,101535.79689454315
2023-03-17T06:12:46.353Z,101540.46311102663
2023-03-17T06:15:42.975Z,101536.50414369049
2023-03-17T06:18:38.483Z,101538.87097241076
2023-03-17T06:21:33.960Z,101536.77051509781
2023-03-17T06:24:29.554Z,101528.9251112122
2023-03-17T06:30:32.744Z,101552.32367548112
2023-03-17T06:33:28.201Z,101554.16555985835
2023-03-17T06:36:23.768Z,101547.77096719231
2023-03-17T06:39:19.321Z,101550.33592836845
2023-03-17T06:42:14.902Z,101546.06886569664
2023-03-17T06:45:11.440Z,101554.09000944332
2023-03-17T06:48:09.029Z,101564.92496365745
2023-03-17T06:51:04.582Z,101563.2878916551
2023-03-17T06:57:06.645Z,101560.2515820139
2023-03-17T07:00:05.240Z,101564.18224420349
2023-03-17T07:03:02.751Z,101567.3517305592
2023-03-17T07:06:01.332Z,101566.87862488364
2023-03-17T07:08:58.444Z,101568.66462785029
2023-03-17T07:11:55.492Z,101569.36806259034
2023-03-17T07:14:52.044Z,101575.35199321696
2023-03-17T07:17:47.566Z,101583.37428622376
2023-03-17T07:20:43.089Z,101587.98684810773
2023-03-17T07:23:38.709Z,101590.39207438374
2023-03-17T07:26:35.213Z,101598.03385232574
2023-03-17T07:29:34.830Z,101585.90673980617
2023-03-17T07:32:30.379Z,101584.98352067938
2023-03-17T07:35:28.023Z,101572.54317316163
2023-03-17T07:38:23.508Z,101570.14058209796
2023-03-17T07:41:22.016Z,101576.51024877428
2023-03-17T07:44:18.586Z,101571.11949788098
2023-03-17T07:47:15.119Z,101563.83680562675
2023-03-17T07:50:11.756Z,101569.35026884047
2023-03-17T07:53:07.247Z,101583.41581338465
2023-03-17T07:56:04.833Z,101588.12036155263
2023-03-17T07:59:00.386Z,101582.07171350192
2023-03-17T08:01:58.119Z,101567.79986584107
2023-03-17T08:04:53.492Z,101554.31538655565
2023-03-17T08:07:50.002Z,101560.18091668734
2023-03-17T08:10:46.670Z,101565.46013472944
2023-03-17T08:13:42.207Z,101561.17327918227
2023-03-17T08:16:38.827Z,101562.40598128042
2023-03-17T08:18:46.431Z,101569.97498129943
2023-03-17T08:21:41.987Z,101572.2659065582
2023-03-17T08:24:39.524Z,101571.8538752832
2023-03-17T08:27:36.059Z,101572.17893860991
2023-03-17T08:30:33.741Z,101563.52467209614
2023-03-17T08:33:30.184Z,101568.81751213217
2023-03-17T08:36:25.752Z,101568.26214017317
2023-03-17T08:39:21.320Z,101558.84061143783
2023-03-17T08:42:17.901Z,101562.45555038076
2023-03-17T08:45:14.440Z,101567.06406571636
2023-03-17T08:48:10.996Z,101566.00136534813
2023-03-17T08:51:06.612Z,101563.71738990059
2023-03-17T08:54:03.138Z,101561.87085555992
2023-03-17T08:57:01.738Z,101551.96781023212
2023-03-17T08:59:57.221Z,101556.28109555184
2023-03-17T09:02:52.892Z,101557.18486022895
2023-03-17T09:05:51.398Z,101553.57516929669
2023-03-17T09:08:49.946Z,101563.67189473235
2023-03-17T09:11:48.449Z,101555.23038833929
2023-03-17T09:14:44.883Z,101555.72867903294
2023-03-17T09:17:43.614Z,101562.20377365757
2023-03-17T09:20:40.159Z,101568.71028081274
2023-03-17T09:23:37.690Z,101561.65299687673
2023-03-17T09:26:34.242Z,101555.40837329191
2023-03-17T09:29:30.825Z,101558.67477537635
2023-03-17T09:32:27.443Z,101557.09462183005
2023-03-17T09:35:22.957Z,101558.45426944534
2023-03-17T09:38:19.492Z,101557.67827854012
2023-03-17T09:41:23.025Z,101555.46209703971
2023-03-17T09:44:31.571Z,101554.16169433117
2023-03-17T09:47:42.961Z,101561.5181590892
2023-03-17T09:50:46.645Z,101559.48167344116
2023-03-17T09:53:51.131Z,101559.39204156009
2023-03-17T09:56:49.742Z,101558.03556229733
2023-03-17T10:00:01.247Z,101557.05838053791
2023-03-17T10:02:59.805Z,101554.27934823839
2023-03-17T10:06:04.379Z,101550.80791966378
2023-03-17T10:09:09.855Z,101549.24308321186
2023-03-17T10:12:15.451Z,101549.4078812687
2023-03-17T10:15:21.951Z,101555.57562708942
2023-03-17T10:18:21.492Z,101546.18605540307
2023-03-17T10:21:24.015Z,101548.5966043788
2023-03-17T10:24:21.635Z,101546.6651024136
2023-03-17T10:27:21.158Z,101547.13818910295
2023-03-17T10:30:17.689Z,101541.66504348106
2023-03-17T10:33:14.294Z,101541.40085981353
2023-03-17T10:36:14.906Z,101540.92498512084
2023-03-17T10:39:12.375Z,101532.78729367316
2023-03-17T10:42:11.894Z,101533.38452179724
2023-03-17T10:45:14.403Z,101540.72400574456
2023-03-17T10:48:17.036Z,101533.5014618474
2023-03-17T10:51:18.560Z,101523.73494990889
2023-03-17T10:54:17.061Z,101529.57546508631
2023-03-17T10:57:14.670Z,101527.16124204926
2023-03-17T11:00:17.222Z,101515.33404758456
2023-03-17T11:03:20.723Z,101512.85151032188
2023-03-17T11:06:32.280Z,101520.48927028845
2023-03-17T11:09:32.818Z,101508.37536089719
2023-03-17T11:12:36.372Z,101505.62949698577
2023-03-17T11:15:35.930Z,101506.80215770204
2023-03-17T11:18:36.458Z,101499.45394011486
2023-03-17T11:21:46.955Z,101498.40099427158
2023-03-17T11:24:50.513Z,101491.34713119006
2023-03-17T11:27:55.066Z,101486.00563090511
2023-03-17T11:31:01.645Z,101490.23284054687
2023-03-17T11:34:08.161Z,101477.57257964024
2023-03-17T11:37:19.668Z,101474.79239484144
2023-03-17T11:43:34.726Z,101469.88364255124
2023-03-17T11:46:36.233Z,101463.84968079558
2023-03-17T11:49:36.806Z,101458.37278925117
2023-03-17T11:52:39.360Z,101461.70996155315
2023-03-17T11:55:42.907Z,101464.6838152278
2023-03-17T11:58:45.453Z,101455.96238043708
2023-03-17T12:01:50.979Z,101448.45167835204
2023-03-17T12:04:53.509Z,101444.60149739421
2023-03-17T12:07:55.073Z,101444.80247514477
2023-03-17T12:10:56.673Z,101437.71367691891
2023-03-17T12:14:00.183Z,101438.14008773207
2023-03-17T12:17:04.728Z,101436.38115041824
2023-03-17T12:20:11.227Z,101428.11887894422
2023-03-17T12:23:14.755Z,101425.03876181046
2023-03-17T12:26:16.298Z,101425.39752238247
2023-03-17T12:29:19.901Z,101419.29607041099
2023-03-17T12:32:19.415Z,101413.75928199608
2023-03-17T12:35:25.991Z,101416.20867148375
2023-03-17T12:38:25.506Z,101405.26845273486
2023-03-17T12:41:40.975Z,101410.00853201517
2023-03-17T12:44:46.528Z,101407.67026251167
2023-03-17T12:48:03.053Z,101402.0827123303
2023-03-17T12:51:16.568Z,101398.43911317506
2023-03-17T12:54:16.101Z,101390.14605989208
2023-03-17T12:57:17.623Z,101386.60300775836
2023-03-17T13:00:18.232Z,101380.51617326499
2023-03-17T13:03:20.781Z,101388.41469916358
2023-03-17T13:06:21.353Z,101382.80565498048
2023-03-17T13:09:29.609Z,101385.58109516284
2023-03-17T13:12:40.344Z,101376.05311432882
2023-03-17T13:15:53.005Z,101377.50062062383
2023-03-17T13:19:13.383Z,101367.11267862211
2023-03-17T13:22:19.919Z,101365.35046336775
2023-03-17T13:25:24.449Z,101352.17099710091
2023-03-17T13:28:24.010Z,101348.72366666024
2023-03-17T13:31:36.541Z,101358.46634158009
2023-03-17T13:34:43.049Z,101347.65172952978
2023-03-17T13:37:56.605Z,101353.85302765307
2023-03-17T13:41:02.125Z,101340.03010309288
2023-03-17T13:44:14.624Z,101343.12167011788
2023-03-17T13:47:18.164Z,101332.34235220008
2023-03-17T13:50:24.679Z,101331.17968212339
2023-03-17T13:53:24.295Z,101322.52982736904
2023-03-17T13:56:27.800Z,101321.98532707435
2023-03-17T13:59:35.313Z,101324.5146163564
2023-03-17T14:02:37.868Z,101311.35449459583
2023-03-17T14:05:37.419Z,101315.85886206286
2023-03-17T14:08:35.001Z,101304.82635365643
2023-03-17T14:11:34.538Z,101303.3897628311
2023-03-17T14:14:46.055Z,101298.97398250739
2023-03-17T14:17:46.598Z,101295.15049367951
2023-03-17T14:20:52.138Z,101290.23060619613
2023-03-17T14:23:54.689Z,101281.55448431852
2023-03-17T14:26:51.261Z,101280.84347163948
2023-03-17T14:29:48.802Z,101270.92544535214
2023-03-17T14:32:48.365Z,101274.71007667387
2023-03-17T14:35:44.948Z,101281.77627072897
2023-03-17T14:38:48.427Z,101275.47170472128
2023-03-17T14:41:53.971Z,101273.10588507666
2023-03-17T14:44:54.508Z,101270.87358261755
2023-03-17T14:47:52.087Z,101273.48253000125
2023-03-17T14:50:51.621Z,101283.79330947195
2023-03-17T14:53:47.147Z,101269.31397789766
2023-03-17T14:56:45.751Z,101273.6554935392
2023-03-17T14:59:51.294Z,101274.86846071298
2023-03-17T15:02:54.805Z,101270.42441198861
2023-03-17T15:06:00.367Z,101277.4600375419
2023-03-17T15:09:11.861Z,101278.73148922206
2023-03-17T15:12:16.420Z,101267.78545815988
2023-03-17T15:15:20.971Z,101276.62708786383
2023-03-17T15:18:19.659Z,101267.21686383607
2023-03-17T15:21:24.036Z,101267.03430124662
2023-03-17T15:24:24.647Z,101262.32354335766
2023-03-17T15:27:20.179Z,101261.62100184218
2023-03-17T15:30:16.728Z,101262.94143773812
2023-03-17T15:33:13.385Z,101263.85437265667
2023-03-17T15:36:25.508Z,101269.10549122906
2023-03-17T15:39:19.356Z,101261.41138521221
2023-03-17T15:42:15.923Z,101266.30339885494
2023-03-17T15:45:14.460Z,101263.46752178727
2023-03-17T15:48:12.023Z,101264.4351834848
2023-03-17T15:51:08.601Z,101266.28542997474
2023-03-17T15:54:04.153Z,101267.82177575842
2023-03-17T15:57:01.770Z,101253.67251759247
2023-03-17T15:59:57.241Z,101257.65469550842
2023-03-17T16:02:59.006Z,101246.30887708979
2023-03-17T16:05:55.377Z,101252.24480369264
2023-03-17T16:08:51.937Z,101251.51643652808
2023-03-17T16:11:51.478Z,101243.77457894197
2023-03-17T16:14:48.053Z,101241.03993549323
2023-03-17T16:20:56.104Z,101239.155098704
2023-03-17T16:23:54.689Z,101239.84342211948
2023-03-17T16:26:50.191Z,101230.09980324729
2023-03-17T16:29:46.827Z,101230.27678258989
2023-03-17T16:32:44.365Z,101231.49474545025
2023-03-17T16:35:45.986Z,101237.06477803088
2023-03-17T16:38:42.476Z,101230.1464434181
2023-03-17T16:41:40.002Z,101227.67937435333
2023-03-17T16:44:36.597Z,101232.10320122696
2023-03-17T16:47:42.111Z,101237.49740751502
2023-03-17T16:50:39.697Z,101233.31159962234
2023-03-17T16:53:36.238Z,101234.05710834297
2023-03-17T16:56:31.904Z,101227.04237703697
2023-03-17T16:59:31.355Z,101231.0339058601
2023-03-17T17:02:26.877Z,101234.56948185085
2023-03-17T17:05:25.430Z,101234.40537591909
2023-03-17T17:08:22.016Z,101240.73083723891
2023-03-17T17:11:18.621Z,101235.08847933794
2023-03-17T17:14:15.169Z,101228.39771993451
2023-03-17T17:17:11.732Z,101238.71479249571
2023-03-17T17:20:08.238Z,101241.28327327731
2023-03-17T17:23:04.806Z,101250.71603049409
2023-03-17T17:26:01.570Z,101246.15949754635
2023-03-17T17:28:56.929Z,101249.57692408033
2023-03-17T17:31:52.531Z,101247.03025522806
2023-03-17T17:34:48.050Z,101243.22729286477
2023-03-17T17:37:48.586Z,101250.26253490943
2023-03-17T17:43:51.794Z,101257.70499935655
2023-03-17T17:46:48.350Z,101253.15995072927
2023-03-17T17:49:43.839Z,101257.1953928851
2023-03-17T17:52:39.373Z,101260.5567561932
2023-03-17T17:55:34.939Z,101262.13666195847
2023-03-17T17:58:31.468Z,101256.0999156969
2023-03-17T18:01:30.131Z,101258.21001023664
2023-03-17T18:04:25.610Z,101263.161056985
2023-03-17T18:07:21.191Z,101258.57423306878
2023-03-17T18:10:18.728Z,101254.50237047207
2023-03-17T18:13:14.268Z,101247.33874924754
2023-03-17T18:16:11.915Z,101252.7559442239
2023-03-17T18:19:08.407Z,101247.21069161735
2023-03-17T18:22:05.941Z,101246.84545342556
2023-03-17T18:25:01.519Z,101248.85727894843
2023-03-17T18:28:08.062Z,101252.02051314196
2023-03-17T18:31:10.666Z,101243.27309348682
2023-03-17T18:34:14.134Z,101248.19573721926
2023-03-17T18:37:10.736Z,101249.00414289774
2023-03-17T18:40:15.168Z,101252.21487365806
2023-03-17T18:43:07.811Z,101251.58264354
2023-03-17T18:46:11.368Z,101247.53674472416
2023-03-17T18:49:12.017Z,101245.49745349663
2023-03-17T18:52:12.432Z,101248.40490415371
2023-03-17T18:55:18.027Z,101246.18382285393
2023-03-17T18:58:23.538Z,101250.29094590138
2023-03-17T19:01:20.157Z,101238.5154257865
2023-03-17T19:04:21.682Z,101246.46658124484
2023-03-17T19:07:23.164Z,101238.08440692407
2023-03-17T19:10:23.711Z,101232.39195554185
2023-03-17T19:13:29.218Z,101236.2253915044
2023-03-17T19:16:30.928Z,101237.62992661915
2023-03-17T19:19:41.382Z,101228.82577755046
2023-03-17T19:22:48.537Z,101226.18273423507
2023-03-17T19:25:54.402Z,101229.48612383325
2023-03-17T19:28:58.933Z,101216.0456675248
2023-03-17T19:32:08.195Z,101222.2933713706
2023-03-17T19:35:23.646Z,101223.3077754735
2023-03-17T19:38:19.574Z,101216.25654367104
2023-03-17T19:41:24.897Z,101219.09522324376
2023-03-17T19:44:30.600Z,101212.98468870494
2023-03-17T19:47:38.112Z,101213.05147010801
2023-03-17T19:50:40.659Z,101219.17171395938
2023-03-17T19:53:37.284Z,101223.20689868098
2023-03-17T19:56:47.329Z,101217.67205736162
2023-03-17T19:59:47.314Z,101218.79230032682
2023-03-17T20:02:49.975Z,101220.42629029663
2023-03-17T20:05:56.315Z,101219.30782842412
2023-03-17T20:08:59.036Z,101216.51751344852
2023-03-17T20:12:14.654Z,101217.98057256595
2023-03-17T20:15:15.978Z,101213.1473447648
2023-03-17T20:18:22.949Z,101215.26019668924
2023-03-17T20:21:34.052Z,101206.47103640348
2023-03-17T20:24:34.639Z,101205.7454267932
2023-03-17T20:27:40.157Z,101211.12502516377
2023-03-17T20:30:45.706Z,101206.53496405679
2023-03-17T20:33:46.206Z,101212.16027948054
2023-03-17T20:36:56.128Z,101202.56911494274
2023-03-17T20:40:04.260Z,101205.86938429263
2023-03-17T20:43:13.821Z,101205.08483398899
2023-03-17T20:46:21.198Z,101204.97004654653
2023-03-17T20:49:29.883Z,101205.79839475198
2023-03-17T20:52:30.533Z,101205.53879396795
2023-03-17T20:55:42.600Z,101201.90356373321
2023-03-17T20:58:42.513Z,101207.35220506301
2023-03-17T21:01:50.078Z,101206.04692502125
2023-03-17T21:04:53.560Z,101208.90084585648
2023-03-17T21:07:58.113Z,101202.37102708714
2023-03-17T21:11:04.604Z,101193.77620352502
2023-03-17T21:14:06.241Z,101194.81184545133
2023-03-17T21:17:11.705Z,101193.8423311397
2023-03-17T21:20:17.225Z,101194.31948414895
2023-03-17T21:23:18.813Z,101188.7046011571
2023-03-17T21:26:19.282Z,101183.4794576393
2023-03-17T21:29:18.880Z,101183.26156837917
2023-03-17T21:32:19.444Z,101180.42436514223
2023-03-17T21:35:20.995Z,101179.07846278038
2023-03-17T21:38:16.902Z,101173.7795639501
2023-03-17T21:44:19.623Z,101159.33970404258
2023-03-17T21:47:20.163Z,101158.36970891985
2023-03-17T21:50:25.641Z,101153.8595947414
2023-03-17T21:53:25.248Z,101159.94545706375
2023-03-17T21:56:26.846Z,101161.50259091999
2023-03-17T21:59:30.350Z,101156.93369985366
2023-03-17T22:02:26.904Z,101149.53642216748
2023-03-17T22:05:34.445Z,101154.05141500062
2023-03-17T22:08:40.830Z,101153.65758846769
2023-03-17T22:11:43.552Z,101151.94386394875
2023-03-17T22:14:44.016Z,101151.50599443978
2023-03-17T22:17:44.621Z,101154.05141500062
2023-03-17T22:20:47.192Z,101155.47026373798
2023-03-17T22:23:42.717Z,101150.74423021547
2023-03-17T22:26:40.306Z,101149.47178139984
2023-03-17T22:29:36.883Z,101140.88904192804
2023-03-17T22:32:33.511Z,101143.52617143962
2023-03-17T22:35:33.980Z,101145.47495005329
2023-03-17T22:38:29.509Z,101142.10857620438
2023-03-17T22:41:32.047Z,101143.30584999025
2023-03-17T22:44:28.582Z,101142.85982932954
2023-03-17T22:47:25.190Z,101140.54074969408
2023-03-17T22:50:21.746Z,101142.8594824626
2023-03-17T22:53:17.299Z,101142.18407312759
2023-03-17T22:56:13.848Z,101140.61633649065
2023-03-17T22:59:09.390Z,101132.0153835912
2023-03-17T23:02:06.055Z,101128.05237347804
2023-03-17T23:05:08.518Z,101131.79089317957
2023-03-17T23:08:05.103Z,101137.17443392989
2023-03-17T23:11:01.613Z,101134.48380203998
2023-03-17T23:13:58.207Z,101136.57775023965
2023-03-17T23:16:54.820Z,101131.64194840081
2023-03-17T23:19:50.306Z,101133.36014881948
2023-03-17T23:22:45.919Z,101136.12825332
2023-03-17T23:25:43.433Z,101140.84049390555
2023-03-17T23:28:41.012Z,101136.27867970585
2023-03-17T23:31:36.565Z,101138.22200287819
2023-03-17T23:34:32.098Z,101134.03113572764
2023-03-17T23:37:27.697Z,101130.58540270843
2023-03-17T23:40:23.226Z,101129.53695433377
2023-03-17T23:43:20.745Z,101131.34077415455
2023-03-17T23:46:18.441Z,101123.634791171
2023-03-17T23:49:13.941Z,101123.93768642777
2023-03-17T23:52:10.484Z,101126.10803808582
2023-03-17T23:55:07.049Z,101125.21046663605
2023-03-17T23:58:02.556Z,101122.36701179069
